createdAt,value
2023-03-16T00:00:02.856Z,2.30
2023-03-16T00:01:06.759Z,2.17
2023-03-16T00:02:11.160Z,2.65
2023-03-16T00:03:19.560Z,2.38
2023-03-16T00:04:23.530Z,2.25
2023-03-16T00:05:26.327Z,2.10
2023-03-16T00:06:30.116Z,2.50
2023-03-16T00:08:38.545Z,2.00
2023-03-16T00:09:41.998Z,1.95
2023-03-16T00:10:47.274Z,2.10
2023-03-16T00:11:49.989Z,2.60
2023-03-16T00:12:53.984Z,2.30
2023-03-16T00:13:56.790Z,2.30
2023-03-16T00:15:00.387Z,2.10
2023-03-16T00:16:04.735Z,2.10
2023-03-16T00:17:08.472Z,2.30
2023-03-16T00:18:11.020Z,2.00
2023-03-16T00:19:14.708Z,2.20
2023-03-16T00:20:18.379Z,2.05
2023-03-16T00:21:22.036Z,2.22
2023-03-16T00:22:25.986Z,1.95
2023-03-16T00:23:30.044Z,2.38
2023-03-16T00:24:34.102Z,2.03
2023-03-16T00:25:37.990Z,2.00
2023-03-16T00:26:40.611Z,2.15
2023-03-16T00:27:44.393Z,2.33
2023-03-16T00:29:56.215Z,2.20
2023-03-16T00:30:59.535Z,2.10
2023-03-16T00:32:03.687Z,1.80
2023-03-16T00:33:06.574Z,2.00
2023-03-16T00:34:10.287Z,2.10
2023-03-16T00:36:17.057Z,1.85
2023-03-16T00:37:21.010Z,1.80
2023-03-16T00:38:24.907Z,2.70
2023-03-16T00:39:27.521Z,2.10
2023-03-16T00:40:34.111Z,2.38
2023-03-16T00:41:38.397Z,2.08
2023-03-16T00:42:43.031Z,1.90
2023-03-16T00:43:46.041Z,3.30
2023-03-16T00:44:49.720Z,2.08
2023-03-16T00:45:57.774Z,2.03
2023-03-16T00:47:01.938Z,1.88
2023-03-16T00:48:04.612Z,1.85
2023-03-16T00:49:08.574Z,2.08
2023-03-16T00:50:12.010Z,2.00
2023-03-16T00:51:17.876Z,1.70
2023-03-16T00:52:21.040Z,1.60
2023-03-16T00:53:24.727Z,1.70
2023-03-16T00:54:27.562Z,1.98
2023-03-16T00:55:33.721Z,1.83
2023-03-16T00:56:36.267Z,1.70
2023-03-16T00:57:40.074Z,1.52
2023-03-16T00:59:47.628Z,2.22
2023-03-16T01:00:51.440Z,1.60
2023-03-16T01:02:57.352Z,1.50
2023-03-16T01:04:01.889Z,1.50
2023-03-16T01:05:06.203Z,1.55
2023-03-16T01:06:11.454Z,1.58
2023-03-16T01:07:15.270Z,1.60
2023-03-16T01:09:21.325Z,2.13
2023-03-16T01:10:25.106Z,1.50
2023-03-16T01:12:32.526Z,1.48
2023-03-16T01:13:35.365Z,1.55
2023-03-16T01:14:40.168Z,1.65
2023-03-16T01:15:43.168Z,1.60
2023-03-16T01:16:46.875Z,1.58
2023-03-16T01:18:54.082Z,1.40
2023-03-16T01:19:56.656Z,1.55
2023-03-16T01:21:00.469Z,1.50
2023-03-16T01:23:06.741Z,1.60
2023-03-16T01:24:09.841Z,1.38
2023-03-16T01:25:14.879Z,1.60
2023-03-16T01:26:18.366Z,2.63
2023-03-16T01:27:26.374Z,1.73
2023-03-16T01:28:31.331Z,1.40
2023-03-16T01:29:35.210Z,1.40
2023-03-16T01:30:37.864Z,1.45
2023-03-16T01:31:42.114Z,1.42
2023-03-16T01:32:44.910Z,1.42
2023-03-16T01:33:48.729Z,1.73
2023-03-16T01:34:52.626Z,1.40
2023-03-16T01:35:56.869Z,1.30
2023-03-16T01:36:59.822Z,1.30
2023-03-16T01:38:04.782Z,1.63
2023-03-16T01:39:07.600Z,1.40
2023-03-16T01:40:13.463Z,1.52
2023-03-16T01:41:16.553Z,1.48
2023-03-16T01:42:20.297Z,1.40
2023-03-16T01:44:31.117Z,1.45
2023-03-16T01:46:14.941Z,1.63
2023-03-16T01:47:18.668Z,1.20
2023-03-16T01:49:32.978Z,1.65
2023-03-16T01:50:36.020Z,1.70
2023-03-16T01:51:44.689Z,1.73
2023-03-16T01:52:47.351Z,1.60
2023-03-16T01:53:54.406Z,1.85
2023-03-16T01:55:02.308Z,1.38
2023-03-16T01:56:08.942Z,1.25
2023-03-16T01:57:16.583Z,1.30
2023-03-16T01:58:19.199Z,1.33
2023-03-16T01:59:29.494Z,1.40
2023-03-16T02:00:33.691Z,1.20
2023-03-16T02:01:37.770Z,1.40
2023-03-16T02:02:43.829Z,1.20
2023-03-16T02:03:47.883Z,1.10
2023-03-16T02:04:54.866Z,1.55
2023-03-16T02:06:03.403Z,1.02
2023-03-16T02:07:09.835Z,1.10
2023-03-16T02:08:13.878Z,1.38
2023-03-16T02:09:18.079Z,1.20
2023-03-16T02:10:22.568Z,1.40
2023-03-16T02:11:26.282Z,1.17
2023-03-16T02:12:30.606Z,1.58
2023-03-16T02:13:37.040Z,1.08
2023-03-16T02:14:42.286Z,1.15
2023-03-16T02:15:45.036Z,1.02
2023-03-16T02:16:49.707Z,1.30
2023-03-16T02:17:53.004Z,1.30
2023-03-16T02:18:56.667Z,1.15
2023-03-16T02:20:11.021Z,1.23
2023-03-16T02:21:25.744Z,2.28
2023-03-16T02:22:29.012Z,1.20
2023-03-16T02:23:33.082Z,1.00
2023-03-16T02:24:36.940Z,1.30
2023-03-16T02:25:46.504Z,1.38
2023-03-16T02:26:55.813Z,1.30
2023-03-16T02:28:09.793Z,1.30
2023-03-16T02:29:21.289Z,1.23
2023-03-16T02:30:27.138Z,1.17
2023-03-16T02:31:30.192Z,1.20
2023-03-16T02:32:35.305Z,1.20
2023-03-16T02:33:39.052Z,1.05
2023-03-16T02:34:43.802Z,1.08
2023-03-16T02:35:46.556Z,1.40
2023-03-16T02:36:53.697Z,1.10
2023-03-16T02:37:56.404Z,1.50
2023-03-16T02:39:00.095Z,1.10
2023-03-16T02:40:06.145Z,0.90
2023-03-16T02:41:14.079Z,1.27
2023-03-16T02:42:19.891Z,1.10
2023-03-16T02:43:29.028Z,1.20
2023-03-16T02:44:35.573Z,1.13
2023-03-16T02:45:44.968Z,1.23
2023-03-16T02:46:49.271Z,1.30
2023-03-16T02:47:56.564Z,1.20
2023-03-16T02:49:03.960Z,1.10
2023-03-16T02:50:08.639Z,1.30
2023-03-16T02:51:11.972Z,1.00
2023-03-16T02:52:15.734Z,1.00
2023-03-16T02:55:24.935Z,1.25
2023-03-16T02:56:29.017Z,1.25
2023-03-16T02:57:32.125Z,1.20
2023-03-16T02:58:36.020Z,1.10
2023-03-16T03:00:43.901Z,1.20
2023-03-16T03:01:46.661Z,1.08
2023-03-16T03:02:50.431Z,1.15
2023-03-16T03:04:56.486Z,1.10
2023-03-16T03:07:05.132Z,1.30
2023-03-16T03:08:09.072Z,1.13
2023-03-16T03:09:12.047Z,1.02
2023-03-16T03:10:15.648Z,1.02
2023-03-16T03:11:19.911Z,1.10
2023-03-16T03:12:23.553Z,1.10
2023-03-16T03:13:26.109Z,0.90
2023-03-16T03:14:29.810Z,1.27
2023-03-16T03:15:32.680Z,1.42
2023-03-16T03:16:38.075Z,1.25
2023-03-16T03:17:40.838Z,1.08
2023-03-16T03:18:44.495Z,1.10
2023-03-16T03:19:47.103Z,1.00
2023-03-16T03:20:50.779Z,1.02
2023-03-16T03:21:57.001Z,1.10
2023-03-16T03:23:00.729Z,1.20
2023-03-16T03:24:03.381Z,1.17
2023-03-16T03:25:09.068Z,1.08
2023-03-16T03:26:11.660Z,0.90
2023-03-16T03:27:15.388Z,1.10
2023-03-16T03:28:18.001Z,1.00
2023-03-16T03:29:21.586Z,1.17
2023-03-16T03:30:25.966Z,1.02
2023-03-16T03:31:29.872Z,1.10
2023-03-16T03:33:37.506Z,0.88
2023-03-16T03:34:40.386Z,1.00
2023-03-16T03:35:43.984Z,0.80
2023-03-16T03:37:51.169Z,1.00
2023-03-16T03:38:55.183Z,1.00
2023-03-16T03:39:58.847Z,0.80
2023-03-16T03:41:01.467Z,1.00
2023-03-16T03:42:05.393Z,1.20
2023-03-16T03:43:08.043Z,1.20
2023-03-16T03:44:11.944Z,1.20
2023-03-16T03:45:15.920Z,0.80
2023-03-16T03:46:19.747Z,1.70
2023-03-16T03:48:27.815Z,0.98
2023-03-16T03:49:31.124Z,1.02
2023-03-16T03:50:34.768Z,1.00
2023-03-16T03:51:37.441Z,0.90
2023-03-16T03:52:41.159Z,1.00
2023-03-16T03:54:47.268Z,0.82
2023-03-16T03:55:50.260Z,1.00
2023-03-16T03:56:54.419Z,0.90
2023-03-16T03:57:57.034Z,1.10
2023-03-16T03:59:00.666Z,0.70
2023-03-16T04:00:08.112Z,0.75
2023-03-16T04:01:11.847Z,1.10
2023-03-16T04:03:18.839Z,1.00
2023-03-16T04:04:22.841Z,0.75
2023-03-16T04:05:27.696Z,1.10
2023-03-16T04:06:30.321Z,0.93
2023-03-16T04:07:34.896Z,0.90
2023-03-16T04:08:37.805Z,0.80
2023-03-16T04:09:42.128Z,0.90
2023-03-16T04:10:45.106Z,0.85
2023-03-16T04:11:48.756Z,0.93
2023-03-16T04:12:51.394Z,0.90
2023-03-16T04:13:55.203Z,1.00
2023-03-16T04:14:57.907Z,0.90
2023-03-16T04:16:03.548Z,1.05
2023-03-16T04:17:06.315Z,0.82
2023-03-16T04:18:10.132Z,1.13
2023-03-16T04:20:19.806Z,1.00
2023-03-16T04:21:22.888Z,0.90
2023-03-16T04:22:26.666Z,1.10
2023-03-16T04:24:34.545Z,0.90
2023-03-16T04:25:38.972Z,0.90
2023-03-16T04:26:42.618Z,1.13
2023-03-16T04:27:47.111Z,1.13
2023-03-16T04:28:50.674Z,0.93
2023-03-16T04:29:55.955Z,1.20
2023-03-16T04:31:03.129Z,1.10
2023-03-16T04:32:06.155Z,1.25
2023-03-16T04:33:09.795Z,0.90
2023-03-16T04:34:14.057Z,1.00
2023-03-16T04:35:19.545Z,0.90
2023-03-16T04:36:24.457Z,0.90
2023-03-16T04:37:28.115Z,1.15
2023-03-16T04:38:34.042Z,1.20
2023-03-16T04:39:37.760Z,0.90
2023-03-16T04:41:46.711Z,1.00
2023-03-16T04:42:49.957Z,0.95
2023-03-16T04:43:54.087Z,1.00
2023-03-16T04:44:56.608Z,0.88
2023-03-16T04:46:00.234Z,1.00
2023-03-16T04:47:03.200Z,1.02
2023-03-16T04:48:07.513Z,0.93
2023-03-16T04:49:10.036Z,0.85
2023-03-16T04:50:14.750Z,1.33
2023-03-16T04:51:20.094Z,1.00
2023-03-16T04:52:22.706Z,1.10
2023-03-16T04:53:26.389Z,1.00
2023-03-16T04:54:29.119Z,1.00
2023-03-16T04:55:32.723Z,1.02
2023-03-16T04:56:35.606Z,1.10
2023-03-16T04:57:39.208Z,1.00
2023-03-16T04:58:41.854Z,0.68
2023-03-16T04:59:45.491Z,0.95
2023-03-16T05:00:48.663Z,0.75
2023-03-16T05:01:52.576Z,1.00
2023-03-16T05:02:55.222Z,1.02
2023-03-16T05:03:59.843Z,1.00
2023-03-16T05:05:03.133Z,0.82
2023-03-16T05:06:07.110Z,0.95
2023-03-16T05:07:11.892Z,0.70
2023-03-16T05:08:15.554Z,1.00
2023-03-16T05:09:18.127Z,1.13
2023-03-16T05:10:22.138Z,1.02
2023-03-16T05:11:25.105Z,0.98
2023-03-16T05:12:28.854Z,1.10
2023-03-16T05:13:31.353Z,1.15
2023-03-16T05:14:36.238Z,1.40
2023-03-16T05:15:39.171Z,1.20
2023-03-16T05:16:43.066Z,1.00
2023-03-16T05:17:46.912Z,1.00
2023-03-16T05:18:50.554Z,0.75
2023-03-16T05:19:53.569Z,1.00
2023-03-16T05:20:58.371Z,1.00
2023-03-16T05:22:02.105Z,1.30
2023-03-16T05:23:08.576Z,0.98
2023-03-16T05:24:12.368Z,1.02
2023-03-16T05:26:20.178Z,1.27
2023-03-16T05:27:22.806Z,0.93
2023-03-16T05:28:26.626Z,1.23
2023-03-16T05:29:31.361Z,0.90
2023-03-16T05:30:34.903Z,1.20
2023-03-16T05:31:38.664Z,1.10
2023-03-16T05:33:45.017Z,1.20
2023-03-16T05:34:48.625Z,1.52
2023-03-16T05:35:52.997Z,1.08
2023-03-16T05:36:56.630Z,1.08
2023-03-16T05:39:04.249Z,0.98
2023-03-16T05:40:14.457Z,1.08
2023-03-16T05:41:18.544Z,0.90
2023-03-16T05:42:21.193Z,0.70
2023-03-16T05:43:24.872Z,1.20
2023-03-16T05:44:27.514Z,1.10
2023-03-16T05:45:31.706Z,1.17
2023-03-16T05:46:34.507Z,1.20
2023-03-16T05:47:38.298Z,1.20
2023-03-16T05:49:44.217Z,1.00
2023-03-16T05:50:47.159Z,1.00
2023-03-16T05:51:51.457Z,1.13
2023-03-16T05:52:54.646Z,1.13
2023-03-16T05:53:58.470Z,1.25
2023-03-16T05:55:03.013Z,0.95
2023-03-16T05:56:07.339Z,1.27
2023-03-16T05:57:09.973Z,1.08
2023-03-16T05:58:13.635Z,1.10
2023-03-16T05:59:18.109Z,1.13
2023-03-16T06:00:23.156Z,0.85
2023-03-16T06:01:26.970Z,1.08
2023-03-16T06:02:31.333Z,1.42
2023-03-16T06:03:35.038Z,1.10
2023-03-16T06:04:38.693Z,1.38
2023-03-16T06:05:42.876Z,1.10
2023-03-16T06:06:45.371Z,1.15
2023-03-16T06:07:50.352Z,1.25
2023-03-16T06:08:52.888Z,1.08
2023-03-16T06:09:56.550Z,0.80
2023-03-16T06:11:00.572Z,1.42
2023-03-16T06:12:04.353Z,1.25
2023-03-16T06:14:10.735Z,1.00
2023-03-16T06:15:13.735Z,1.20
2023-03-16T06:16:17.608Z,1.25
2023-03-16T06:17:20.133Z,1.00
2023-03-16T06:18:23.827Z,0.90
2023-03-16T06:20:30.186Z,1.02
2023-03-16T06:21:33.020Z,1.38
2023-03-16T06:22:36.688Z,1.30
2023-03-16T06:23:40.321Z,1.10
2023-03-16T06:24:46.074Z,1.77
2023-03-16T06:25:50.223Z,1.13
2023-03-16T06:26:54.311Z,1.15
2023-03-16T06:27:58.103Z,1.20
2023-03-16T06:30:04.030Z,1.35
2023-03-16T06:31:06.719Z,0.88
2023-03-16T06:32:10.574Z,0.95
2023-03-16T06:33:13.119Z,1.10
2023-03-16T06:34:16.838Z,1.08
2023-03-16T06:35:19.568Z,1.73
2023-03-16T06:36:23.399Z,1.05
2023-03-16T06:37:26.168Z,1.08
2023-03-16T06:38:29.908Z,1.23
2023-03-16T06:39:32.532Z,0.93
2023-03-16T06:40:36.156Z,0.95
2023-03-16T06:41:39.920Z,1.10
2023-03-16T06:43:49.839Z,0.90
2023-03-16T06:44:53.823Z,1.13
2023-03-16T06:45:56.384Z,1.25
2023-03-16T06:47:00.422Z,1.20
2023-03-16T06:48:04.245Z,1.25
2023-03-16T06:49:07.971Z,1.02
2023-03-16T06:50:13.356Z,1.35
2023-03-16T06:51:16.918Z,1.15
2023-03-16T06:52:21.209Z,1.00
2023-03-16T06:53:25.096Z,1.50
2023-03-16T06:54:27.564Z,1.38
2023-03-16T06:55:31.722Z,1.30
2023-03-16T06:56:34.379Z,1.60
2023-03-16T06:57:38.032Z,1.40
2023-03-16T06:58:42.302Z,1.40
2023-03-16T06:59:45.901Z,1.20
2023-03-16T07:00:48.589Z,1.27
2023-03-16T07:01:52.254Z,1.50
2023-03-16T07:02:54.833Z,1.35
2023-03-16T07:03:58.602Z,1.42
2023-03-16T07:06:04.534Z,1.40
2023-03-16T07:08:10.755Z,1.48
2023-03-16T07:09:13.448Z,1.50
2023-03-16T07:10:19.708Z,1.40
2023-03-16T07:11:22.247Z,1.48
2023-03-16T07:12:26.049Z,1.40
2023-03-16T07:13:28.632Z,1.40
2023-03-16T07:14:33.826Z,1.23
2023-03-16T07:15:36.442Z,1.60
2023-03-16T07:16:40.162Z,1.50
2023-03-16T07:18:46.534Z,1.40
2023-03-16T07:19:49.131Z,1.70
2023-03-16T07:20:54.242Z,1.60
2023-03-16T07:21:57.200Z,1.30
2023-03-16T07:23:00.890Z,1.48
2023-03-16T07:25:08.162Z,1.35
2023-03-16T07:26:12.286Z,1.75
2023-03-16T07:27:15.907Z,1.50
2023-03-16T07:28:18.472Z,1.67
2023-03-16T07:29:22.317Z,1.50
2023-03-16T07:30:26.766Z,1.60
2023-03-16T07:31:30.618Z,1.40
2023-03-16T07:32:33.416Z,1.77
2023-03-16T07:33:37.417Z,1.75
2023-03-16T07:34:40.173Z,1.42
2023-03-16T07:35:44.237Z,1.60
2023-03-16T07:36:48.874Z,1.50
2023-03-16T07:37:52.534Z,1.92
2023-03-16T07:39:58.488Z,1.75
2023-03-16T07:41:01.469Z,1.60
2023-03-16T07:42:05.749Z,1.70
2023-03-16T07:43:09.467Z,1.60
2023-03-16T07:45:15.422Z,1.63
2023-03-16T07:47:26.232Z,1.58
2023-03-16T07:48:29.046Z,1.83
2023-03-16T07:49:32.728Z,1.55
2023-03-16T07:51:38.526Z,1.80
2023-03-16T07:53:44.357Z,1.73
2023-03-16T07:55:50.171Z,1.60
2023-03-16T07:56:52.816Z,1.58
2023-03-16T07:57:56.354Z,1.75
2023-03-16T07:58:58.920Z,1.80
2023-03-16T08:00:05.331Z,1.83
2023-03-16T08:01:09.510Z,1.88
2023-03-16T08:02:15.497Z,1.80
2023-03-16T08:03:19.217Z,1.83
2023-03-16T08:05:27.773Z,1.80
2023-03-16T08:06:31.783Z,2.03
2023-03-16T08:07:35.570Z,1.63
2023-03-16T08:08:38.154Z,1.75
2023-03-16T08:09:42.112Z,2.00
2023-03-16T08:10:45.751Z,1.83
2023-03-16T08:11:48.336Z,2.10
2023-03-16T08:12:52.517Z,2.00
2023-03-16T08:13:56.696Z,2.13
2023-03-16T08:15:00.399Z,1.95
2023-03-16T08:17:07.750Z,1.92
2023-03-16T08:18:12.975Z,1.80
2023-03-16T08:19:17.515Z,1.88
2023-03-16T08:20:20.344Z,2.10
2023-03-16T08:21:24.243Z,2.05
2023-03-16T08:22:26.882Z,1.77
2023-03-16T08:23:31.033Z,1.77
2023-03-16T08:24:33.949Z,1.83
2023-03-16T08:25:37.623Z,1.80
2023-03-16T08:27:43.500Z,1.65
2023-03-16T08:28:48.355Z,1.70
2023-03-16T08:29:53.254Z,1.80
2023-03-16T08:30:58.722Z,1.90
2023-03-16T08:32:01.399Z,2.00
2023-03-16T08:33:05.728Z,1.75
2023-03-16T08:34:10.419Z,1.63
2023-03-16T08:35:16.901Z,1.65
2023-03-16T08:36:21.228Z,1.73
2023-03-16T08:37:24.584Z,1.88
2023-03-16T08:38:28.173Z,1.80
2023-03-16T08:40:35.288Z,1.70
2023-03-16T08:41:40.837Z,1.70
2023-03-16T08:42:45.942Z,1.95
2023-03-16T08:44:55.407Z,1.65
2023-03-16T08:45:58.820Z,1.85
2023-03-16T08:47:02.740Z,1.90
2023-03-16T08:48:05.889Z,1.83
2023-03-16T08:49:11.177Z,1.90
2023-03-16T08:50:14.133Z,1.70
2023-03-16T08:51:19.164Z,1.80
2023-03-16T08:52:23.175Z,2.13
2023-03-16T08:53:28.432Z,1.77
2023-03-16T08:54:32.608Z,1.90
2023-03-16T08:55:37.249Z,1.98
2023-03-16T08:56:39.779Z,1.80
2023-03-16T08:57:45.398Z,2.08
2023-03-16T08:58:50.612Z,1.70
2023-03-16T08:59:55.159Z,1.95
2023-03-16T09:00:57.807Z,1.80
2023-03-16T09:02:01.535Z,1.90
2023-03-16T09:04:07.908Z,1.90
2023-03-16T09:05:15.005Z,1.90
2023-03-16T09:06:19.292Z,2.10
2023-03-16T09:07:22.102Z,2.03
2023-03-16T09:08:25.825Z,1.90
2023-03-16T09:10:33.403Z,1.90
2023-03-16T09:11:36.528Z,2.10
2023-03-16T09:12:41.147Z,2.00
2023-03-16T09:13:44.956Z,1.83
2023-03-16T09:14:49.335Z,1.80
2023-03-16T09:15:51.938Z,2.17
2023-03-16T09:16:57.128Z,2.15
2023-03-16T09:18:01.086Z,1.92
2023-03-16T09:19:05.915Z,2.00
2023-03-16T09:20:21.915Z,1.90
2023-03-16T09:22:31.051Z,2.17
2023-03-16T09:24:40.501Z,2.30
2023-03-16T09:25:45.547Z,2.00
2023-03-16T09:26:48.291Z,1.83
2023-03-16T09:27:54.632Z,1.90
2023-03-16T09:28:57.327Z,1.80
2023-03-16T09:30:02.080Z,2.28
2023-03-16T09:31:06.186Z,2.00
2023-03-16T09:32:10.077Z,1.95
2023-03-16T09:33:13.913Z,2.10
2023-03-16T09:34:17.609Z,2.10
2023-03-16T09:36:23.670Z,1.90
2023-03-16T09:37:27.872Z,2.78
2023-03-16T09:38:33.372Z,2.40
2023-03-16T09:39:37.332Z,2.00
2023-03-16T09:40:42.917Z,2.00
2023-03-16T09:41:52.797Z,1.60
2023-03-16T09:43:11.457Z,2.20
2023-03-16T09:44:29.446Z,1.83
2023-03-16T09:45:40.383Z,2.05
2023-03-16T09:46:48.130Z,2.10
2023-03-16T09:47:52.683Z,1.80
2023-03-16T09:48:58.102Z,1.90
2023-03-16T09:50:05.597Z,1.83
2023-03-16T09:51:19.248Z,2.10
2023-03-16T09:52:34.401Z,1.90
2023-03-16T09:53:40.077Z,2.40
2023-03-16T09:54:49.626Z,1.92
2023-03-16T09:55:56.025Z,2.00
2023-03-16T09:57:01.924Z,1.65
2023-03-16T09:58:06.272Z,1.80
2023-03-16T09:59:14.314Z,1.88
2023-03-16T10:00:20.280Z,2.30
2023-03-16T10:01:36.061Z,2.10
2023-03-16T10:03:02.649Z,1.90
2023-03-16T10:04:28.090Z,2.00
2023-03-16T10:05:32.449Z,1.98
2023-03-16T10:06:43.416Z,2.28
2023-03-16T10:07:57.938Z,1.98
2023-03-16T10:09:18.319Z,1.70
2023-03-16T10:10:41.904Z,1.70
2023-03-16T10:11:48.762Z,2.13
2023-03-16T10:12:54.549Z,1.83
2023-03-16T10:14:05.834Z,1.90
2023-03-16T10:15:15.303Z,1.70
2023-03-16T10:16:21.709Z,1.90
2023-03-16T10:17:30.223Z,1.85
2023-03-16T10:18:42.793Z,1.88
2023-03-16T10:19:51.449Z,2.00
2023-03-16T10:20:55.858Z,2.10
2023-03-16T10:22:04.186Z,1.98
2023-03-16T10:23:17.611Z,1.88
2023-03-16T10:24:35.902Z,1.90
2023-03-16T10:25:47.756Z,2.90
2023-03-16T10:27:00.406Z,2.35
2023-03-16T10:28:03.315Z,2.40
2023-03-16T10:29:12.554Z,2.45
2023-03-16T10:30:22.433Z,2.15
2023-03-16T10:32:34.818Z,1.63
2023-03-16T10:33:38.502Z,1.80
2023-03-16T10:34:44.838Z,1.85
2023-03-16T10:35:50.879Z,2.20
2023-03-16T10:36:55.338Z,2.03
2023-03-16T10:37:59.348Z,1.75
2023-03-16T10:39:07.790Z,2.00
2023-03-16T10:40:13.185Z,1.80
2023-03-16T10:41:25.772Z,2.53
2023-03-16T10:42:29.648Z,2.05
2023-03-16T10:43:32.451Z,1.70
2023-03-16T10:44:42.069Z,1.83
2023-03-16T10:45:46.767Z,1.92
2023-03-16T10:46:53.709Z,2.00
2023-03-16T10:48:07.984Z,1.92
2023-03-16T10:49:27.411Z,1.90
2023-03-16T10:50:32.230Z,2.75
2023-03-16T10:51:37.183Z,1.80
2023-03-16T10:52:44.154Z,1.63
2023-03-16T10:53:47.904Z,1.80
2023-03-16T10:56:03.369Z,2.22
2023-03-16T10:57:17.073Z,1.95
2023-03-16T10:58:29.647Z,1.98
2023-03-16T10:59:35.367Z,1.85
2023-03-16T11:00:43.443Z,2.10
2023-03-16T11:01:50.423Z,1.88
2023-03-16T11:02:55.606Z,2.10
2023-03-16T11:04:01.050Z,2.10
2023-03-16T11:05:16.247Z,1.98
2023-03-16T11:06:23.133Z,1.88
2023-03-16T11:07:27.878Z,1.52
2023-03-16T11:08:34.596Z,1.90
2023-03-16T11:09:38.716Z,1.80
2023-03-16T11:10:54.972Z,2.28
2023-03-16T11:11:59.540Z,1.88
2023-03-16T11:14:15.555Z,2.03
2023-03-16T11:15:25.760Z,1.80
2023-03-16T11:16:37.207Z,1.98
2023-03-16T11:17:45.169Z,2.13
2023-03-16T11:18:53.524Z,2.17
2023-03-16T11:20:02.349Z,2.13
2023-03-16T11:21:13.115Z,2.00
2023-03-16T11:22:20.182Z,1.60
2023-03-16T11:23:31.576Z,2.10
2023-03-16T11:24:46.316Z,1.73
2023-03-16T11:25:56.282Z,1.70
2023-03-16T11:28:15.613Z,1.73
2023-03-16T11:29:25.356Z,1.70
2023-03-16T11:30:32.393Z,1.63
2023-03-16T11:31:43.674Z,1.80
2023-03-16T11:32:49.550Z,2.05
2023-03-16T11:33:55.690Z,2.00
2023-03-16T11:34:58.834Z,1.80
2023-03-16T11:36:18.905Z,1.77
2023-03-16T11:37:34.245Z,1.98
2023-03-16T11:38:44.510Z,2.08
2023-03-16T11:40:02.500Z,1.70
2023-03-16T11:41:11.972Z,2.00
2023-03-16T11:42:31.281Z,1.90
2023-03-16T11:43:53.201Z,1.92
2023-03-16T11:45:01.938Z,1.80
2023-03-16T11:46:17.230Z,2.00
2023-03-16T11:47:52.816Z,1.50
2023-03-16T11:49:10.992Z,1.58
2023-03-16T11:50:18.949Z,1.90
2023-03-16T11:51:36.659Z,1.70
2023-03-16T11:52:49.846Z,2.30
2023-03-16T11:54:03.431Z,2.22
2023-03-16T11:55:21.592Z,1.58
2023-03-16T11:56:34.687Z,1.80
2023-03-16T11:57:50.634Z,2.10
2023-03-16T11:59:06.404Z,1.90
2023-03-16T12:00:22.269Z,1.83
2023-03-16T12:01:43.055Z,1.70
2023-03-16T12:02:56.502Z,1.70
2023-03-16T12:04:16.435Z,1.95
2023-03-16T12:05:44.398Z,1.90
2023-03-16T12:07:01.469Z,1.85
2023-03-16T12:08:31.554Z,1.90
2023-03-16T12:09:59.212Z,1.42
2023-03-16T12:11:06.263Z,1.67
2023-03-16T12:12:26.150Z,1.67
2023-03-16T12:13:40.292Z,1.60
2023-03-16T12:14:47.919Z,1.90
2023-03-16T12:15:56.113Z,2.10
2023-03-16T12:17:03.146Z,1.95
2023-03-16T12:18:16.045Z,1.90
2023-03-16T12:19:25.946Z,1.88
2023-03-16T12:20:32.315Z,1.70
2023-03-16T12:21:40.360Z,1.73
2023-03-16T12:22:47.268Z,1.90
2023-03-16T12:23:53.713Z,1.95
2023-03-16T12:24:56.284Z,1.80
2023-03-16T12:26:01.369Z,1.83
2023-03-16T12:27:05.515Z,1.73
2023-03-16T12:28:19.446Z,1.90
2023-03-16T12:29:32.746Z,1.90
2023-03-16T12:30:44.163Z,1.70
2023-03-16T12:31:56.033Z,1.77
2023-03-16T12:33:06.134Z,1.80
2023-03-16T12:34:18.803Z,1.80
2023-03-16T12:35:31.003Z,1.75
2023-03-16T12:37:03.994Z,1.90
2023-03-16T12:38:27.778Z,1.55
2023-03-16T12:39:47.922Z,1.70
2023-03-16T12:41:03.889Z,2.03
2023-03-16T12:42:21.749Z,1.70
2023-03-16T12:43:46.767Z,1.70
2023-03-16T12:44:56.825Z,1.83
2023-03-16T12:47:15.563Z,1.90
2023-03-16T12:48:29.200Z,1.73
2023-03-16T12:49:33.592Z,2.05
2023-03-16T12:50:37.320Z,1.80
2023-03-16T12:52:46.776Z,2.00
2023-03-16T12:53:56.429Z,1.70
2023-03-16T12:55:08.671Z,1.90
2023-03-16T12:56:15.535Z,1.77
2023-03-16T12:57:19.770Z,2.10
2023-03-16T12:58:24.578Z,1.60
2023-03-16T12:59:40.557Z,2.10
2023-03-16T13:00:43.412Z,1.90
2023-03-16T13:01:51.462Z,2.28
2023-03-16T13:02:59.985Z,2.13
2023-03-16T13:04:10.914Z,2.08
2023-03-16T13:05:16.904Z,1.77
2023-03-16T13:06:23.917Z,2.85
2023-03-16T13:07:29.749Z,1.77
2023-03-16T13:08:43.037Z,2.20
2023-03-16T13:09:52.719Z,1.77
2023-03-16T13:11:07.916Z,2.05
2023-03-16T13:12:23.076Z,2.35
2023-03-16T13:13:27.132Z,2.10
2023-03-16T13:14:41.856Z,1.83
2023-03-16T13:15:49.931Z,1.90
2023-03-16T13:17:05.650Z,1.85
2023-03-16T13:18:24.090Z,1.98
2023-03-16T13:19:29.120Z,2.13
2023-03-16T13:20:35.197Z,1.70
2023-03-16T13:21:41.434Z,1.80
2023-03-16T13:22:48.268Z,1.80
2023-03-16T13:23:57.689Z,2.00
2023-03-16T13:25:15.827Z,1.95
2023-03-16T13:26:23.267Z,1.80
2023-03-16T13:27:30.346Z,1.90
2023-03-16T13:28:37.812Z,2.03
2023-03-16T13:29:53.461Z,2.17
2023-03-16T13:30:56.325Z,1.80
2023-03-16T13:32:02.980Z,1.90
2023-03-16T13:33:19.382Z,1.80
2023-03-16T13:34:26.660Z,2.05
2023-03-16T13:35:32.086Z,1.95
2023-03-16T13:36:37.361Z,2.08
2023-03-16T13:37:43.901Z,1.95
2023-03-16T13:38:57.885Z,1.90
2023-03-16T13:40:04.607Z,1.67
2023-03-16T13:41:11.881Z,2.00
2023-03-16T13:42:20.612Z,1.80
2023-03-16T13:43:26.098Z,2.15
2023-03-16T13:44:29.806Z,1.73
2023-03-16T13:45:38.709Z,2.10
2023-03-16T13:46:42.650Z,1.80
2023-03-16T13:47:46.382Z,1.88
2023-03-16T13:49:58.498Z,2.05
2023-03-16T13:51:02.252Z,2.22
2023-03-16T13:53:17.713Z,1.65
2023-03-16T13:54:26.556Z,2.10
2023-03-16T13:55:33.566Z,1.75
2023-03-16T13:56:40.390Z,2.00
2023-03-16T13:57:45.974Z,2.42
2023-03-16T13:58:51.001Z,2.00
2023-03-16T14:00:06.098Z,1.65
2023-03-16T14:01:24.017Z,2.33
2023-03-16T14:02:26.702Z,1.98
2023-03-16T14:03:34.940Z,1.70
2023-03-16T14:04:43.419Z,2.28
2023-03-16T14:05:47.891Z,2.38
2023-03-16T14:06:55.577Z,2.17
2023-03-16T14:08:01.149Z,2.03
2023-03-16T14:09:09.554Z,1.77
2023-03-16T14:10:17.356Z,1.73
2023-03-16T14:11:20.063Z,2.28
2023-03-16T14:12:23.866Z,1.92
2023-03-16T14:13:34.490Z,2.30
2023-03-16T14:14:41.645Z,2.00
2023-03-16T14:15:47.073Z,2.55
2023-03-16T14:16:53.216Z,2.05
2023-03-16T14:18:03.816Z,1.92
2023-03-16T14:19:17.894Z,2.20
2023-03-16T14:20:25.796Z,2.10
2023-03-16T14:21:30.345Z,1.95
2023-03-16T14:22:37.370Z,2.25
2023-03-16T14:23:43.866Z,1.90
2023-03-16T14:24:54.918Z,2.15
2023-03-16T14:25:57.559Z,1.90
2023-03-16T14:27:17.575Z,1.85
2023-03-16T14:28:29.985Z,1.90
2023-03-16T14:29:34.318Z,2.70
2023-03-16T14:30:38.422Z,2.08
2023-03-16T14:31:41.347Z,2.40
2023-03-16T14:32:58.582Z,2.10
2023-03-16T14:34:04.331Z,2.70
2023-03-16T14:35:16.020Z,2.33
2023-03-16T14:36:20.021Z,2.50
2023-03-16T14:37:23.816Z,1.98
2023-03-16T14:39:34.834Z,2.10
2023-03-16T14:40:39.966Z,2.13
2023-03-16T14:41:44.758Z,1.85
2023-03-16T14:42:47.576Z,2.17
2023-03-16T14:43:53.539Z,2.88
2023-03-16T14:45:00.111Z,2.00
2023-03-16T14:46:08.828Z,2.22
2023-03-16T14:47:24.269Z,2.97
2023-03-16T14:48:31.803Z,2.35
2023-03-16T14:49:37.622Z,2.03
2023-03-16T14:50:41.569Z,1.90
2023-03-16T14:51:46.359Z,2.20
2023-03-16T14:52:51.575Z,2.15
2023-03-16T14:53:54.333Z,2.55
2023-03-16T14:54:58.495Z,2.17
2023-03-16T14:56:02.484Z,2.10
2023-03-16T14:57:06.348Z,2.25
2023-03-16T14:58:13.215Z,2.30
2023-03-16T14:59:15.878Z,1.90
2023-03-16T15:00:21.938Z,2.00
2023-03-16T15:01:27.283Z,2.15
2023-03-16T15:02:33.188Z,2.08
2023-03-16T15:03:42.982Z,2.15
2023-03-16T15:04:47.724Z,1.67
2023-03-16T15:05:53.579Z,2.10
2023-03-16T15:06:56.092Z,1.80
2023-03-16T15:08:00.116Z,2.47
2023-03-16T15:09:04.211Z,2.15
2023-03-16T15:10:17.186Z,2.10
2023-03-16T15:11:22.008Z,2.05
2023-03-16T15:12:26.356Z,2.00
2023-03-16T15:13:53.470Z,3.47
2023-03-16T15:15:14.187Z,2.22
2023-03-16T15:16:18.362Z,2.05
2023-03-16T15:17:22.232Z,1.77
2023-03-16T15:18:25.879Z,2.00
2023-03-16T15:19:30.117Z,2.13
2023-03-16T15:20:37.598Z,1.77
2023-03-16T15:21:40.323Z,2.55
2023-03-16T15:22:49.543Z,2.22
2023-03-16T15:23:52.381Z,1.90
2023-03-16T15:24:56.457Z,2.25
2023-03-16T15:26:03.035Z,2.10
2023-03-16T15:27:20.199Z,1.98
2023-03-16T15:28:25.404Z,1.60
2023-03-16T15:29:29.746Z,2.28
2023-03-16T15:30:38.104Z,2.80
2023-03-16T15:31:41.879Z,2.20
2023-03-16T15:32:44.876Z,2.03
2023-03-16T15:33:49.325Z,2.22
2023-03-16T15:34:53.530Z,2.22
2023-03-16T15:35:59.472Z,1.85
2023-03-16T15:37:04.978Z,1.90
2023-03-16T15:38:14.083Z,2.17
2023-03-16T15:39:23.541Z,2.03
2023-03-16T15:40:29.774Z,2.40
2023-03-16T15:41:46.655Z,2.22
2023-03-16T15:42:51.813Z,2.08
2023-03-16T15:44:00.930Z,2.28
2023-03-16T15:45:07.974Z,2.58
2023-03-16T15:46:11.510Z,2.25